createdAt,value
2019-02-15T00:00:41.093Z,11.60
2019-02-15T00:03:10.633Z,10.90
2019-02-15T00:05:40.218Z,10.10
2019-02-15T00:08:09.988Z,11.10
2019-02-15T00:10:39.524Z,10.30
2019-02-15T00:13:13.508Z,10.00
2019-02-15T00:15:40.464Z,10.40
2019-02-15T00:18:30.264Z,10.50
2019-02-15T00:21:01.516Z,10.10
2019-02-15T00:23:31.038Z,9.67
2019-02-15T00:26:00.596Z,10.03
2019-02-15T00:28:30.188Z,9.13
2019-02-15T00:30:59.679Z,9.80
2019-02-15T00:33:29.210Z,10.27
2019-02-15T00:35:58.745Z,12.83
2019-02-15T00:38:28.584Z,10.60
2019-02-15T00:40:58.084Z,9.83
2019-02-15T00:43:27.777Z,10.43
2019-02-15T00:46:18.240Z,11.47
2019-02-15T00:48:47.805Z,12.80
2019-02-15T00:51:18.922Z,11.80
2019-02-15T00:53:53.183Z,12.23
2019-02-15T00:56:40.325Z,11.00
2019-02-15T00:59:20.278Z,10.83
2019-02-15T01:02:07.477Z,12.40
2019-02-15T01:04:38.630Z,10.37
2019-02-15T01:07:25.841Z,11.87
2019-02-15T01:09:56.978Z,11.30
2019-02-15T01:12:28.150Z,11.97
2019-02-15T01:14:57.688Z,10.17
2019-02-15T01:17:27.189Z,11.27
2019-02-15T01:19:56.682Z,11.80
2019-02-15T01:22:26.200Z,10.70
2019-02-15T01:24:56.125Z,14.20
2019-02-15T01:27:27.252Z,12.40
2019-02-15T01:30:01.115Z,11.43
2019-02-15T01:32:34.959Z,11.97
2019-02-15T01:35:08.821Z,11.17
2019-02-15T01:37:40.006Z,11.80
2019-02-15T01:40:11.149Z,11.20
2019-02-15T01:42:48.029Z,9.97
2019-02-15T01:45:19.161Z,11.07
2019-02-15T01:47:48.848Z,12.03
2019-02-15T01:50:18.834Z,12.20
2019-02-15T01:52:48.342Z,10.60
2019-02-15T01:55:18.208Z,11.90
2019-02-15T01:57:47.767Z,10.97
2019-02-15T02:00:18.624Z,10.57
2019-02-15T02:02:48.129Z,11.97
2019-02-15T02:05:17.668Z,10.53
2019-02-15T02:07:47.172Z,10.63
2019-02-15T02:10:16.708Z,12.47
2019-02-15T02:12:46.199Z,11.93
2019-02-15T02:15:15.696Z,10.47
2019-02-15T02:17:45.230Z,9.93
2019-02-15T02:20:14.804Z,10.47
2019-02-15T02:22:44.353Z,10.17
2019-02-15T02:25:13.865Z,11.73
2019-02-15T02:27:43.421Z,12.20
2019-02-15T02:30:12.952Z,12.33
2019-02-15T02:32:42.480Z,11.27
2019-02-15T02:35:11.986Z,11.63
2019-02-15T02:37:41.534Z,9.43
2019-02-15T02:40:11.041Z,12.67
2019-02-15T02:42:40.573Z,11.23
2019-02-15T02:45:10.115Z,12.63
2019-02-15T02:47:39.630Z,12.97
2019-02-15T02:50:09.150Z,10.23
2019-02-15T02:52:38.689Z,12.40
2019-02-15T02:55:10.417Z,13.27
2019-02-15T02:57:39.929Z,10.20
2019-02-15T03:00:09.598Z,12.03
2019-02-15T03:02:39.091Z,12.20
2019-02-15T03:05:08.821Z,10.40
2019-02-15T03:07:38.373Z,12.03
2019-02-15T03:10:08.024Z,9.77
2019-02-15T03:12:37.528Z,10.80
2019-02-15T03:15:07.795Z,10.23
2019-02-15T03:17:37.289Z,11.30
2019-02-15T03:20:07.624Z,13.50
2019-02-15T03:22:37.328Z,12.60
2019-02-15T03:25:06.959Z,9.83
2019-02-15T03:27:36.549Z,11.60
2019-02-15T03:30:09.191Z,11.27
2019-02-15T03:32:38.733Z,10.00
2019-02-15T03:35:09.802Z,10.80
2019-02-15T03:37:43.699Z,11.67
2019-02-15T03:40:17.740Z,10.83
2019-02-15T03:42:47.281Z,10.33
2019-02-15T03:45:18.202Z,10.17
2019-02-15T03:47:48.711Z,10.50
2019-02-15T03:50:18.332Z,11.57
2019-02-15T03:52:47.923Z,12.93
2019-02-15T03:55:17.583Z,11.17
2019-02-15T03:57:47.129Z,14.03
2019-02-15T04:00:16.633Z,12.60
2019-02-15T04:02:46.276Z,11.90
2019-02-15T04:05:15.850Z,10.30
2019-02-15T04:07:45.377Z,11.00
2019-02-15T04:10:14.883Z,11.13
2019-02-15T04:12:44.413Z,12.20
2019-02-15T04:15:14.032Z,10.80
2019-02-15T04:17:43.529Z,11.43
2019-02-15T04:20:13.129Z,10.80
2019-02-15T04:22:42.716Z,11.07
2019-02-15T04:25:12.213Z,12.27
2019-02-15T04:27:41.724Z,11.78
2019-02-15T04:30:11.877Z,12.23
2019-02-15T04:32:41.389Z,11.20
2019-02-15T04:35:10.895Z,10.67
2019-02-15T04:37:40.481Z,11.27
2019-02-15T04:40:10.193Z,14.27
2019-02-15T04:42:39.698Z,11.47
2019-02-15T04:45:09.559Z,12.83
2019-02-15T04:47:39.067Z,12.83
2019-02-15T04:50:09.309Z,11.70
2019-02-15T04:52:38.850Z,11.20
2019-02-15T04:55:08.363Z,12.33
2019-02-15T04:57:38.879Z,10.67
2019-02-15T05:00:09.428Z,12.30
2019-02-15T05:02:38.921Z,14.00
2019-02-15T05:05:08.457Z,12.77
2019-02-15T05:07:37.962Z,12.80
2019-02-15T05:10:07.461Z,14.57
2019-02-15T05:12:37.006Z,10.87
2019-02-15T05:15:08.230Z,12.33
2019-02-15T05:17:37.751Z,11.27
2019-02-15T05:20:08.323Z,13.57
2019-02-15T05:22:37.855Z,13.77
2019-02-15T05:25:07.601Z,12.33
2019-02-15T05:27:37.292Z,11.70
2019-02-15T05:30:08.242Z,13.77
2019-02-15T05:32:37.740Z,12.00
2019-02-15T05:35:07.300Z,12.97
2019-02-15T05:37:36.828Z,10.97
2019-02-15T05:40:07.176Z,12.57
2019-02-15T05:42:36.726Z,12.27
2019-02-15T05:45:06.541Z,13.47
2019-02-15T05:47:36.093Z,12.70
2019-02-15T05:50:06.494Z,10.37
2019-02-15T05:52:36.049Z,15.07
2019-02-15T05:55:06.392Z,11.50
2019-02-15T05:57:35.981Z,12.53
2019-02-15T06:00:10.107Z,11.50
2019-02-15T06:02:39.797Z,13.67
2019-02-15T06:05:09.538Z,11.87
2019-02-15T06:07:39.091Z,12.30
2019-02-15T06:10:09.631Z,10.88
2019-02-15T06:12:39.146Z,13.80
2019-02-15T06:15:15.257Z,12.03
2019-02-15T06:17:39.885Z,12.33
2019-02-15T06:20:09.469Z,10.43
2019-02-15T06:22:39.037Z,12.50
2019-02-15T06:25:09.050Z,12.80
2019-02-15T06:27:38.628Z,10.30
2019-02-15T06:30:09.837Z,13.10
2019-02-15T06:32:39.356Z,11.53
2019-02-15T06:35:08.980Z,14.80
2019-02-15T06:37:38.560Z,12.70
2019-02-15T06:40:08.126Z,13.53
2019-02-15T06:42:37.686Z,11.45
2019-02-15T06:45:07.637Z,10.90
2019-02-15T06:47:37.192Z,12.77
2019-02-15T06:50:08.040Z,9.60
2019-02-15T06:52:37.731Z,11.83
2019-02-15T06:55:07.754Z,11.80
2019-02-15T06:57:37.323Z,12.87
2019-02-15T07:00:16.074Z,12.40
2019-02-15T07:02:52.984Z,12.82
2019-02-15T07:05:24.183Z,13.15
2019-02-15T07:07:53.776Z,12.00
2019-02-15T07:10:23.349Z,13.23
2019-02-15T07:12:52.902Z,10.50
2019-02-15T07:15:22.441Z,12.63
2019-02-15T07:17:51.965Z,12.23
2019-02-15T07:20:21.482Z,12.83
2019-02-15T07:22:51.089Z,11.97
2019-02-15T07:25:20.629Z,12.47
2019-02-15T07:27:50.140Z,14.33
2019-02-15T07:30:19.638Z,11.87
2019-02-15T07:32:49.200Z,13.83
2019-02-15T07:35:18.714Z,12.77
2019-02-15T07:37:48.248Z,12.67
2019-02-15T07:40:18.155Z,11.60
2019-02-15T07:42:48.658Z,11.93
2019-02-15T07:45:22.666Z,12.97
2019-02-15T07:47:53.036Z,13.50
2019-02-15T07:50:22.546Z,11.00
2019-02-15T07:52:52.129Z,12.90
2019-02-15T07:55:21.681Z,12.73
2019-02-15T07:57:51.177Z,11.27
2019-02-15T08:00:20.696Z,12.63
2019-02-15T08:02:50.209Z,11.83
2019-02-15T08:05:19.807Z,13.77
2019-02-15T08:07:49.385Z,12.10
2019-02-15T08:10:18.903Z,12.43
2019-02-15T08:12:48.429Z,12.10
2019-02-15T08:15:17.961Z,11.67
2019-02-15T08:17:47.884Z,10.93
2019-02-15T08:20:17.357Z,11.57
2019-02-15T08:22:46.874Z,12.73
2019-02-15T08:25:16.438Z,10.93
2019-02-15T08:27:45.934Z,11.73
2019-02-15T08:30:15.450Z,11.50
2019-02-15T08:32:45.295Z,11.70
2019-02-15T08:35:14.814Z,12.83
2019-02-15T08:37:44.363Z,14.10
2019-02-15T08:40:13.926Z,12.50
2019-02-15T08:42:43.454Z,12.83
2019-02-15T08:45:13.343Z,11.13
2019-02-15T08:47:42.879Z,11.60
2019-02-15T08:50:12.654Z,11.50
2019-02-15T08:52:42.152Z,12.00
2019-02-15T08:55:12.213Z,10.50
2019-02-15T08:57:41.747Z,12.23
2019-02-15T09:00:12.823Z,13.30
2019-02-15T09:02:42.320Z,11.40
2019-02-15T09:05:13.346Z,12.20
2019-02-15T09:07:43.710Z,12.90
2019-02-15T09:10:13.858Z,12.73
2019-02-15T09:12:43.344Z,13.20
2019-02-15T09:15:15.710Z,13.77
2019-02-15T09:17:45.264Z,12.23
2019-02-15T09:20:14.763Z,13.50
2019-02-15T09:22:44.273Z,12.10
2019-02-15T09:25:13.799Z,12.83
2019-02-15T09:28:00.921Z,12.33
2019-02-15T09:30:30.462Z,11.97
2019-02-15T09:32:59.975Z,12.73
2019-02-15T09:35:29.505Z,10.97
2019-02-15T09:37:58.993Z,10.33
2019-02-15T09:40:28.852Z,10.13
2019-02-15T09:42:58.482Z,9.70
2019-02-15T09:45:27.992Z,9.47
2019-02-15T09:47:57.506Z,9.13
2019-02-15T09:50:26.997Z,9.67
2019-02-15T09:52:56.521Z,8.87
2019-02-15T09:55:26.395Z,8.10
2019-02-15T09:57:55.890Z,7.13
2019-02-15T10:00:25.408Z,7.70
2019-02-15T10:02:54.903Z,7.63
2019-02-15T10:05:24.390Z,6.27
2019-02-15T10:07:53.946Z,5.90
2019-02-15T10:10:23.459Z,5.83
2019-02-15T10:12:53.043Z,6.07
2019-02-15T10:15:22.555Z,5.47
2019-02-15T10:17:52.069Z,5.30
2019-02-15T10:20:21.592Z,5.50
2019-02-15T10:22:51.095Z,5.13
2019-02-15T10:25:20.619Z,5.33
2019-02-15T10:27:50.145Z,5.70
2019-02-15T10:30:19.657Z,5.33
2019-02-15T10:32:49.152Z,4.90
2019-02-15T10:35:18.678Z,4.70
2019-02-15T10:37:48.169Z,4.87
2019-02-15T10:40:18.635Z,4.90
2019-02-15T10:42:48.713Z,4.50
2019-02-15T10:45:18.273Z,4.90
2019-02-15T10:47:47.755Z,5.33
2019-02-15T10:50:17.275Z,5.23
2019-02-15T10:52:46.867Z,4.40
2019-02-15T10:55:16.378Z,5.00
2019-02-15T10:57:45.938Z,4.70
2019-02-15T11:00:19.272Z,4.73
2019-02-15T11:02:48.782Z,4.60
2019-02-15T11:05:19.353Z,4.17
2019-02-15T11:07:48.847Z,4.33
2019-02-15T11:10:18.333Z,4.40
2019-02-15T11:12:48.046Z,3.93
2019-02-15T11:15:17.843Z,4.27
2019-02-15T11:17:47.323Z,4.43
2019-02-15T11:20:17.552Z,4.50
2019-02-15T11:22:47.300Z,4.37
2019-02-15T11:25:16.793Z,4.37
2019-02-15T11:27:46.269Z,4.57
2019-02-15T11:30:16.943Z,5.13
2019-02-15T11:32:46.456Z,4.17
2019-02-15T11:35:15.958Z,4.20
2019-02-15T11:37:45.542Z,4.53
2019-02-15T11:40:15.496Z,4.67
2019-02-15T11:42:44.974Z,3.97
2019-02-15T11:45:15.141Z,4.43
2019-02-15T11:47:44.647Z,3.80
2019-02-15T11:50:15.870Z,4.73
2019-02-15T11:52:45.379Z,5.63
2019-02-15T11:55:14.935Z,4.80
2019-02-15T11:57:44.514Z,4.80
2019-02-15T12:00:18.410Z,5.40
2019-02-15T12:02:48.469Z,4.87
2019-02-15T12:05:18.428Z,5.20
2019-02-15T12:07:47.960Z,5.40
2019-02-15T12:10:17.448Z,5.10
2019-02-15T12:12:47.111Z,4.90
2019-02-15T12:15:16.599Z,6.13
2019-02-15T12:17:46.107Z,5.83
2019-02-15T12:20:15.898Z,5.93
2019-02-15T12:22:45.388Z,5.90
2019-02-15T12:25:14.864Z,8.20
2019-02-15T12:27:44.413Z,8.00
2019-02-15T12:30:14.965Z,6.23
2019-02-15T12:32:44.478Z,7.50
2019-02-15T12:35:14.344Z,6.77
2019-02-15T12:37:44.148Z,6.70
2019-02-15T12:40:13.882Z,7.00
2019-02-15T12:42:43.395Z,5.90
2019-02-15T12:45:16.549Z,6.30
2019-02-15T12:47:46.040Z,5.10
2019-02-15T12:50:17.736Z,6.10
2019-02-15T12:52:47.256Z,5.87
2019-02-15T12:55:16.760Z,5.40
2019-02-15T12:57:46.248Z,5.77
2019-02-15T13:00:16.808Z,5.33
2019-02-15T13:02:46.318Z,5.40
2019-02-15T13:05:15.853Z,5.00
2019-02-15T13:07:45.343Z,4.13
2019-02-15T13:10:25.328Z,5.53
2019-02-15T13:12:54.813Z,4.90
2019-02-15T13:15:24.790Z,5.00
2019-02-15T13:17:54.342Z,4.70
2019-02-15T13:20:23.903Z,4.37
2019-02-15T13:22:53.548Z,4.93
2019-02-15T13:25:23.142Z,5.30
2019-02-15T13:27:52.665Z,5.80
2019-02-15T13:30:22.624Z,5.30
2019-02-15T13:32:52.120Z,5.27
2019-02-15T13:35:23.864Z,5.17
2019-02-15T13:37:53.488Z,5.80
2019-02-15T13:40:23.975Z,5.77
2019-02-15T13:42:53.892Z,5.00
2019-02-15T13:45:23.389Z,4.90
2019-02-15T13:47:52.905Z,4.90
2019-02-15T13:50:22.411Z,5.10
2019-02-15T13:52:51.922Z,5.50
2019-02-15T13:55:21.721Z,6.53
2019-02-15T13:57:51.224Z,5.20
2019-02-15T14:00:20.738Z,5.40
2019-02-15T14:02:50.576Z,5.83
2019-02-15T14:05:20.085Z,4.63
2019-02-15T14:07:49.737Z,5.83
2019-02-15T14:10:19.261Z,5.20
2019-02-15T14:12:48.768Z,5.60
2019-02-15T14:15:19.324Z,4.57
2019-02-15T14:17:48.984Z,4.63
2019-02-15T14:20:18.520Z,4.70
2019-02-15T14:22:48.114Z,4.77
2019-02-15T14:25:17.636Z,5.30
2019-02-15T14:27:47.174Z,4.50
2019-02-15T14:30:16.691Z,5.07
2019-02-15T14:32:46.215Z,4.50
2019-02-15T14:35:15.693Z,4.03
2019-02-15T14:37:45.414Z,4.00
2019-02-15T14:40:14.968Z,3.90
2019-02-15T14:42:44.555Z,4.00
2019-02-15T14:45:14.596Z,4.50
2019-02-15T14:47:54.017Z,5.17
2019-02-15T14:50:15.504Z,4.20
2019-02-15T14:52:45.133Z,4.77
2019-02-15T14:55:14.609Z,4.70
2019-02-15T14:57:44.138Z,4.60
2019-02-15T15:00:14.478Z,4.30
2019-02-15T15:02:44.921Z,4.77
2019-02-15T15:05:14.520Z,5.20
2019-02-15T15:07:44.021Z,4.03
2019-02-15T15:10:13.637Z,4.67
2019-02-15T15:12:43.504Z,5.07
2019-02-15T15:15:14.829Z,4.80
2019-02-15T15:17:44.387Z,4.40
2019-02-15T15:20:14.160Z,4.30
2019-02-15T15:22:44.645Z,5.17
2019-02-15T15:25:15.412Z,4.13
2019-02-15T15:27:44.919Z,4.20
2019-02-15T15:30:17.278Z,4.13
2019-02-15T15:32:46.769Z,4.77
2019-02-15T15:35:16.316Z,4.80
2019-02-15T15:37:45.806Z,3.90
2019-02-15T15:40:18.168Z,5.33
2019-02-15T15:42:47.759Z,4.53
2019-02-15T15:45:17.261Z,4.13
2019-02-15T15:47:47.692Z,4.80
2019-02-15T15:50:17.272Z,4.27
2019-02-15T15:52:46.787Z,4.83
2019-02-15T15:55:17.783Z,3.70
2019-02-15T15:57:47.468Z,4.27
2019-02-15T16:00:16.980Z,4.23
2019-02-15T16:02:46.649Z,4.40
2019-02-15T16:05:16.132Z,4.50
2019-02-15T16:07:45.640Z,4.77
2019-02-15T16:10:15.640Z,5.10
2019-02-15T16:12:45.131Z,4.60
2019-02-15T16:15:15.075Z,4.20
2019-02-15T16:17:45.904Z,4.57
2019-02-15T16:20:15.384Z,4.30
2019-02-15T16:22:44.927Z,4.33
2019-02-15T16:25:14.538Z,4.03
2019-02-15T16:27:44.093Z,3.83
2019-02-15T16:30:14.915Z,4.63
2019-02-15T16:32:44.462Z,5.43
2019-02-15T16:35:13.987Z,3.93
2019-02-15T16:37:43.501Z,4.00
2019-02-15T16:40:15.022Z,4.83
2019-02-15T16:42:45.519Z,4.40
2019-02-15T16:45:15.763Z,4.07
2019-02-15T16:47:45.257Z,4.17
2019-02-15T16:50:14.781Z,4.70
2019-02-15T16:52:44.308Z,4.10
2019-02-15T16:55:13.912Z,4.80
2019-02-15T16:57:43.416Z,4.60
2019-02-15T17:00:13.769Z,5.07
2019-02-15T17:02:43.313Z,4.20
2019-02-15T17:05:12.990Z,4.70
2019-02-15T17:07:42.522Z,3.93
2019-02-15T17:10:12.170Z,4.70
2019-02-15T17:12:41.656Z,4.17
2019-02-15T17:15:13.584Z,3.93
2019-02-15T17:17:43.081Z,4.70
2019-02-15T17:20:12.664Z,4.67
2019-02-15T17:22:42.518Z,5.73
2019-02-15T17:25:12.347Z,5.33
2019-02-15T17:27:41.837Z,4.43
2019-02-15T17:30:12.175Z,5.10
2019-02-15T17:32:41.702Z,9.70
2019-02-15T17:35:11.737Z,6.17
2019-02-15T17:37:41.328Z,4.80
2019-02-15T17:40:16.033Z,5.27
2019-02-15T17:42:45.536Z,4.40
2019-02-15T17:45:15.165Z,5.07
2019-02-15T17:47:44.680Z,4.90
2019-02-15T17:50:14.326Z,4.57
2019-02-15T17:52:43.929Z,5.87
2019-02-15T17:55:13.638Z,5.93
2019-02-15T17:57:43.153Z,4.90
2019-02-15T18:00:13.979Z,4.73
2019-02-15T18:02:43.520Z,5.10
2019-02-15T18:05:18.690Z,5.23
2019-02-15T18:07:49.898Z,6.13
2019-02-15T18:10:19.374Z,4.00
2019-02-15T18:12:49.961Z,4.90
2019-02-15T18:15:19.464Z,24.07
2019-02-15T18:17:49.641Z,7.13
2019-02-15T18:20:20.391Z,5.00
2019-02-15T18:22:50.151Z,9.27
2019-02-15T18:25:19.666Z,10.57
2019-02-15T18:27:49.174Z,6.20
2019-02-15T18:30:18.656Z,5.97
2019-02-15T18:32:48.173Z,6.83
2019-02-15T18:35:17.709Z,6.00
2019-02-15T18:37:47.216Z,6.27
2019-02-15T18:40:16.700Z,5.83
2019-02-15T18:42:46.241Z,5.80
2019-02-15T18:45:17.278Z,5.47
2019-02-15T18:47:46.760Z,5.23
2019-02-15T18:50:16.332Z,6.70
2019-02-15T18:52:45.885Z,6.10
2019-02-15T18:55:15.369Z,5.53
2019-02-15T18:57:44.908Z,5.00
2019-02-15T19:00:15.814Z,5.37
2019-02-15T19:02:47.548Z,4.70
2019-02-15T19:05:17.498Z,5.60
2019-02-15T19:07:46.991Z,5.73
2019-02-15T19:10:18.618Z,5.47
2019-02-15T19:12:48.166Z,5.17
2019-02-15T19:15:17.645Z,5.10
2019-02-15T19:17:47.158Z,4.77
2019-02-15T19:20:17.321Z,5.83
2019-02-15T19:22:47.080Z,5.10
2019-02-15T19:25:20.488Z,5.57
2019-02-15T19:27:49.976Z,5.17
2019-02-15T19:30:25.238Z,5.40
2019-02-15T19:32:54.728Z,4.87
2019-02-15T19:35:24.216Z,5.37
2019-02-15T19:37:53.787Z,6.13
2019-02-15T19:40:23.323Z,5.47
2019-02-15T19:42:56.249Z,5.87
2019-02-15T19:45:25.756Z,6.03
2019-02-15T19:47:55.252Z,5.50
2019-02-15T19:50:24.812Z,6.40
2019-02-15T19:52:54.374Z,5.90
2019-02-15T19:55:23.881Z,5.77
2019-02-15T19:57:53.408Z,6.07
2019-02-15T20:00:22.937Z,5.47
2019-02-15T20:02:52.440Z,5.40
2019-02-15T20:05:21.991Z,6.40
2019-02-15T20:07:51.601Z,5.20
2019-02-15T20:10:22.230Z,5.83
2019-02-15T20:12:51.712Z,6.17
2019-02-15T20:15:21.234Z,5.53
2019-02-15T20:17:50.772Z,5.23
2019-02-15T20:20:20.384Z,5.57
2019-02-15T20:22:49.934Z,6.17
2019-02-15T20:25:19.551Z,6.40
2019-02-15T20:27:49.083Z,5.77
2019-02-15T20:30:21.387Z,4.73
2019-02-15T20:32:50.898Z,5.67
2019-02-15T20:35:20.388Z,4.60
2019-02-15T20:37:49.941Z,5.30
2019-02-15T20:40:19.504Z,5.37
2019-02-15T20:42:49.001Z,5.00
2019-02-15T20:45:21.221Z,5.13
2019-02-15T20:47:50.805Z,6.70
2019-02-15T20:50:21.723Z,5.83
2019-02-15T20:52:52.153Z,7.30
2019-02-15T20:55:22.632Z,6.73
2019-02-15T20:57:52.142Z,7.07
2019-02-15T21:00:27.500Z,6.40
2019-02-15T21:02:56.990Z,5.63
2019-02-15T21:05:26.540Z,7.00
2019-02-15T21:07:56.048Z,7.30
2019-02-15T21:10:25.525Z,6.43
2019-02-15T21:12:55.046Z,6.70
2019-02-15T21:15:25.533Z,5.63
2019-02-15T21:17:55.078Z,5.37
2019-02-15T21:20:24.817Z,5.60
2019-02-15T21:22:55.379Z,6.20
2019-02-15T21:25:24.931Z,5.80
2019-02-15T21:27:54.441Z,6.43
2019-02-15T21:30:31.714Z,6.47
2019-02-15T21:33:01.227Z,5.70
2019-02-15T21:36:05.915Z,6.40
2019-02-15T21:38:36.383Z,5.50
2019-02-15T21:41:16.854Z,5.73
2019-02-15T21:43:56.261Z,5.20
2019-02-15T21:46:53.236Z,6.13
2019-02-15T21:49:32.622Z,5.60
2019-02-15T21:52:02.302Z,5.90
2019-02-15T21:54:45.963Z,5.47
2019-02-15T21:57:15.843Z,5.80
2019-02-15T21:59:57.431Z,5.90
2019-02-15T22:02:27.238Z,6.20
2019-02-15T22:05:05.829Z,5.20
2019-02-15T22:07:35.347Z,5.73
2019-02-15T22:10:08.650Z,5.50
2019-02-15T22:12:39.057Z,6.17
2019-02-15T22:15:15.914Z,5.90
2019-02-15T22:17:45.453Z,6.53
2019-02-15T22:20:26.279Z,6.80
2019-02-15T22:22:49.215Z,5.87
2019-02-15T22:25:18.722Z,6.47
2019-02-15T22:27:48.225Z,6.60
2019-02-15T22:30:19.009Z,7.03
2019-02-15T22:32:49.421Z,6.60
2019-02-15T22:35:19.969Z,6.50
2019-02-15T22:37:49.494Z,7.27
2019-02-15T22:40:32.391Z,6.47
2019-02-15T22:43:07.413Z,7.80
2019-02-15T22:45:36.908Z,8.03
2019-02-15T22:48:06.439Z,8.13
2019-02-15T22:50:36.510Z,7.77
2019-02-15T22:53:06.099Z,8.23
2019-02-15T22:55:35.629Z,8.00
2019-02-15T22:58:05.132Z,7.90
2019-02-15T23:03:24.152Z,8.10
2019-02-15T23:05:53.665Z,7.93
2019-02-15T23:08:23.141Z,7.90
2019-02-15T23:10:52.798Z,7.77
2019-02-15T23:13:22.296Z,7.73
2019-02-15T23:15:52.048Z,8.43
2019-02-15T23:18:21.593Z,8.70
2019-02-15T23:20:51.089Z,9.03
2019-02-15T23:23:20.580Z,10.30
2019-02-15T23:25:50.121Z,9.53
2019-02-15T23:28:19.628Z,11.17
2019-02-15T23:30:49.120Z,10.93
2019-02-15T23:33:19.002Z,11.80
2019-02-15T23:35:48.505Z,10.70
2019-02-15T23:38:18.018Z,11.20
2019-02-15T23:40:47.545Z,11.23
2019-02-15T23:43:17.978Z,11.50
2019-02-15T23:45:47.666Z,9.60
2019-02-15T23:48:17.193Z,9.20
2019-02-15T23:50:54.274Z,10.13
2019-02-15T23:53:17.975Z,9.27
2019-02-15T23:55:48.521Z,8.87
2019-02-15T23:58:18.040Z,6.87
